Time;durP1;ratioP1;P1;durP2;ratioP2;P2;SDS_P1;SDS_P2;PMS_P1;PMS_P2;Temp;Humidity;BMP_temperature;BMP_pressure;BME280_temperature;BME280_humidity;BME280_pressure;Samples;Min_cycle;Max_cycle;Signal;HPM_P1;HPM_P2
2021/10/17 00:02:16;;;;;;;14.98;9.82;;;;;;;3.25;100.00;99194.13;5003898;28;20053;-69
2021/10/17 00:04:41;;;;;;;20.60;9.50;;;;;;;3.13;100.00;99185.41;5484783;22;20020;-73
2021/10/17 00:07:09;;;;;;;16.83;10.10;;;;;;;3.15;100.00;99191.47;5027073;28;20041;-73
2021/10/17 00:09:36;;;;;;;15.18;9.60;;;;;;;2.96;100.00;99180.81;5029407;28;20487;-72
2021/10/17 00:12:02;;;;;;;14.65;9.27;;;;;;;2.78;100.00;99154.88;5042828;28;20087;-71
2021/10/17 00:14:27;;;;;;;16.92;10.70;;;;;;;2.89;100.00;99174.41;5024467;28;20029;-72
2021/10/17 00:16:53;;;;;;;14.82;9.23;;;;;;;2.86;100.00;99164.84;5010422;28;20450;-72
2021/10/17 00:19:18;;;;;;;14.02;9.07;;;;;;;2.85;100.00;99177.34;5010950;28;20058;-72
2021/10/17 00:21:43;;;;;;;16.08;9.60;;;;;;;2.81;100.00;99170.63;5012721;28;20030;-71
2021/10/17 00:24:08;;;;;;;15.25;9.48;;;;;;;2.75;100.00;99155.16;5012448;28;20056;-71
2021/10/17 00:26:34;;;;;;;14.88;8.63;;;;;;;2.57;100.00;99132.88;5021368;28;20036;-71
2021/10/17 00:29:00;;;;;;;14.48;9.43;;;;;;;2.91;100.00;99178.63;5010097;28;20133;-71
2021/10/17 00:31:25;;;;;;;13.85;9.07;;;;;;;2.81;100.00;99165.28;5013480;28;20452;-71
2021/10/17 00:33:51;;;;;;;14.77;9.82;;;;;;;3.08;100.00;99195.72;5011051;28;20030;-74
2021/10/17 00:36:16;;;;;;;17.20;11.27;;;;;;;3.13;100.00;99192.59;5012364;28;20033;-71
2021/10/17 00:38:42;;;;;;;17.15;11.10;;;;;;;3.03;100.00;99169.41;5010731;28;20021;-72
2021/10/17 00:41:07;;;;;;;16.88;11.07;;;;;;;2.99;100.00;99175.22;5008073;28;20030;-73
2021/10/17 00:43:33;;;;;;;18.80;11.73;;;;;;;3.12;100.00;99182.88;5011685;28;20044;-71
2021/10/17 00:45:58;;;;;;;16.60;10.50;;;;;;;3.16;100.00;99184.28;5011125;28;20025;-72
2021/10/17 00:48:23;;;;;;;21.02;11.40;;;;;;;3.11;100.00;99163.31;5012361;28;20045;-71
2021/10/17 00:50:49;;;;;;;15.30;9.70;;;;;;;3.12;100.00;99173.06;5010947;28;20052;-70
2021/10/17 00:53:18;;;;;;;13.73;9.18;;;;;;;3.08;100.00;99179.66;5012342;28;20100;-71
2021/10/17 00:55:44;;;;;;;;;;;;;;;3.01;100.00;99182.09;5011020;28;20037;-71
2021/10/17 00:58:09;;;;;;;13.88;8.55;;;;;;;2.88;100.00;99170.03;5012052;28;20278;-71
2021/10/17 01:00:35;;;;;;;15.90;9.27;;;;;;;2.97;100.00;99178.03;5011003;28;20026;-71
2021/10/17 01:03:00;;;;;;;22.67;10.00;;;;;;;2.99;100.00;99177.88;5027392;28;20029;-71
2021/10/17 01:05:25;;;;;;;18.13;10.27;;;;;;;3.01;100.00;99162.53;5010119;28;20040;-70
2021/10/17 01:07:51;;;;;;;17.15;9.77;;;;;;;2.82;100.00;99161.59;5012229;28;20108;-71
2021/10/17 01:10:17;;;;;;;17.38;11.20;;;;;;;2.83;100.00;99173.16;5011023;28;20057;-71
2021/10/17 01:12:44;;;;;;;17.80;10.38;;;;;;;2.92;100.00;99172.25;5010108;28;20443;-72
2021/10/17 01:15:09;;;;;;;16.05;8.88;;;;;;;2.87;100.00;99163.00;5012228;28;20392;-72
2021/10/17 01:17:36;;;;;;;13.73;8.73;;;;;;;2.92;100.00;99171.44;5020496;28;20032;-72
2021/10/17 01:20:01;;;;;;;15.27;10.02;;;;;;;2.84;100.00;99146.28;5014981;28;20033;-72
2021/10/17 01:22:27;;;;;;;17.83;9.75;;;;;;;2.99;100.00;99172.53;5014829;28;20032;-72
2021/10/17 01:24:53;;;;;;;18.67;9.60;;;;;;;2.77;100.00;99131.78;5015480;28;20622;-72
2021/10/17 01:27:19;;;;;;;17.33;9.70;;;;;;;3.03;100.00;99169.41;5013638;28;20121;-73
2021/10/17 01:29:47;;;;;;;16.90;10.25;;;;;;;3.07;100.00;99169.97;5014046;28;20034;-75
2021/10/17 01:32:12;;;;;;;16.67;9.00;;;;;;;2.99;100.00;99162.69;5011295;28;20034;-74
2021/10/17 01:34:38;;;;;;;18.65;9.68;;;;;;;2.89;100.00;99128.97;5015200;28;20030;-74
2021/10/17 01:37:04;;;;;;;58.88;23.98;;;;;;;3.14;100.00;99163.03;5015118;28;20069;-75
2021/10/17 01:39:29;;;;;;;47.95;20.55;;;;;;;3.24;100.00;99160.31;5013518;28;20025;-73
2021/10/17 01:41:54;;;;;;;58.08;23.58;;;;;;;3.19;100.00;99149.22;5012682;28;20033;-72
2021/10/17 01:44:26;;;;;;;64.05;25.10;;;;;;;3.27;100.00;99170.72;5012643;28;20100;-72
2021/10/17 01:46:53;;;;;;;37.45;14.95;;;;;;;2.97;100.00;99142.44;5016614;28;20037;-73
2021/10/17 01:49:19;;;;;;;53.42;21.67;;;;;;;3.09;100.00;99167.97;5014668;28;20022;-71
2021/10/17 01:51:44;;;;;;;88.60;26.33;;;;;;;3.04;100.00;99170.28;5006468;28;20090;-72
2021/10/17 01:54:10;;;;;;;53.53;22.48;;;;;;;2.99;100.00;99140.47;5013130;28;20072;-72
2021/10/17 01:56:36;;;;;;;39.53;15.48;;;;;;;2.97;100.00;99164.66;5024068;28;20025;-71
2021/10/17 01:59:02;;;;;;;27.35;13.88;;;;;;;3.03;100.00;99160.56;5019766;28;20040;-71
2021/10/17 02:01:27;;;;;;;48.15;20.00;;;;;;;2.96;100.00;99162.97;5016103;28;20108;-72
2021/10/17 02:03:54;;;;;;;81.90;29.13;;;;;;;2.90;100.00;99165.38;5010828;28;20034;-71
2021/10/17 02:06:19;;;;;;;78.25;29.55;;;;;;;2.68;100.00;99137.19;5014197;28;20093;-71
2021/10/17 02:08:44;;;;;;;95.28;34.25;;;;;;;2.91;100.00;99159.91;5013976;28;20045;-71
2021/10/17 02:11:10;;;;;;;103.50;36.95;;;;;;;2.70;100.00;99141.41;5015062;28;20030;-71
2021/10/17 02:13:35;;;;;;;96.45;33.22;;;;;;;2.83;100.00;99157.13;5013565;28;20052;-71
2021/10/17 02:16:00;;;;;;;104.93;33.88;;;;;;;2.66;100.00;99123.13;5013358;28;20041;-70
2021/10/17 02:18:25;;;;;;;54.67;22.08;;;;;;;2.64;100.00;99125.94;5014294;28;20022;-71
2021/10/17 02:20:51;;;;;;;64.03;20.02;;;;;;;2.79;100.00;99156.53;5014677;28;20080;-71
2021/10/17 02:23:17;;;;;;;36.38;14.82;;;;;;;2.66;100.00;99134.66;5014749;28;20428;-71
2021/10/17 02:25:43;;;;;;;28.25;13.77;;;;;;;2.76;100.00;99145.31;5013094;28;20022;-71
2021/10/17 02:28:08;;;;;;;25.40;11.82;;;;;;;2.64;100.00;99121.44;5012471;28;20368;-71
2021/10/17 02:30:33;;;;;;;31.15;11.32;;;;;;;2.82;100.00;99150.06;5013818;28;20495;-71
2021/10/17 02:32:58;;;;;;;21.48;8.98;;;;;;;2.72;100.00;99134.06;5014930;28;20105;-72
2021/10/17 02:35:24;;;;;;;18.65;9.80;;;;;;;2.78;100.00;99148.69;5014372;28;20395;-72
2021/10/17 02:37:49;;;;;;;45.15;11.95;;;;;;;2.91;100.00;99153.69;5014237;28;20384;-72
2021/10/17 02:40:14;;;;;;;18.55;10.40;;;;;;;2.81;100.00;99130.53;5014444;28;20444;-72
2021/10/17 02:42:40;;;;;;;29.83;10.82;;;;;;;2.76;100.00;99123.94;5011530;28;20030;-72
2021/10/17 02:45:06;;;;;;;18.77;10.10;;;;;;;2.97;100.00;99132.59;5012775;28;20026;-72
2021/10/17 02:47:32;;;;;;;20.75;10.00;;;;;;;2.86;100.00;99122.09;5012438;28;20021;-72
2021/10/17 02:49:57;;;;;;;16.92;9.35;;;;;;;2.93;100.00;99133.84;5012187;28;20368;-72
2021/10/17 02:52:23;;;;;;;16.08;9.32;;;;;;;3.08;100.00;99151.09;5003668;28;20188;-72
2021/10/17 02:54:48;;;;;;;15.93;8.50;;;;;;;2.96;100.00;99136.25;5010325;28;20481;-72
2021/10/17 02:57:14;;;;;;;16.77;8.80;;;;;;;2.84;100.00;99126.72;5011783;28;20022;-71
2021/10/17 02:59:39;;;;;;;35.50;9.85;;;;;;;2.89;100.00;99139.66;5012798;28;20510;-71
2021/10/17 03:02:04;;;;;;;22.20;9.10;;;;;;;2.88;100.00;99146.81;5012690;28;20029;-72
2021/10/17 03:04:30;;;;;;;15.98;8.95;;;;;;;2.98;100.00;99144.09;5013134;28;20387;-74
2021/10/17 03:06:55;;;;;;;28.67;10.02;;;;;;;2.95;100.00;99139.06;5012993;28;20160;-72
2021/10/17 03:09:21;;;;;;;12.57;8.18;;;;;;;2.98;100.00;99128.91;5013500;28;20030;-72
2021/10/17 03:11:46;;;;;;;14.13;8.43;;;;;;;3.03;100.00;99147.19;5012761;28;20041;-72
2021/10/17 03:14:13;;;;;;;26.90;8.10;;;;;;;2.89;100.00;99136.97;5012698;28;20108;-72
2021/10/17 03:16:38;;;;;;;16.00;7.55;;;;;;;2.84;100.00;99148.94;5012857;28;20091;-72
2021/10/17 03:19:04;;;;;;;21.67;8.23;;;;;;;2.77;100.00;99128.28;5013085;28;20029;-71
2021/10/17 03:21:29;;;;;;;17.77;7.82;;;;;;;2.82;100.00;99137.56;5012107;28;20045;-71
2021/10/17 03:23:54;;;;;;;28.15;8.18;;;;;;;2.79;100.00;99139.69;5002616;28;20030;-71
2021/10/17 03:26:20;;;;;;;28.70;8.57;;;;;;;2.68;100.00;99135.34;4993726;28;20085;-70
2021/10/17 03:28:45;;;;;;;16.23;7.63;;;;;;;2.71;100.00;99135.06;5010591;28;20030;-71
2021/10/17 03:31:11;;;;;;;12.45;7.63;;;;;;;2.68;100.00;99105.13;5013206;28;20030;-71
2021/10/17 03:33:36;;;;;;;28.38;8.75;;;;;;;2.77;100.00;99137.16;5008492;28;20027;-71
2021/10/17 03:36:02;;;;;;;32.25;8.70;;;;;;;2.77;100.00;99133.63;5003248;28;20028;-71
2021/10/17 03:38:27;;;;;;;12.50;7.82;;;;;;;2.83;100.00;99122.38;5012688;28;20049;-71
2021/10/17 03:40:53;;;;;;;12.20;6.93;;;;;;;2.93;100.00;99141.03;5013058;28;20152;-71
2021/10/17 03:43:18;;;;;;;18.55;8.88;;;;;;;2.76;100.00;99130.13;5012786;28;20025;-70
2021/10/17 03:45:44;;;;;;;15.68;8.50;;;;;;;2.69;100.00;99112.97;5012757;28;20075;-71
2021/10/17 03:48:09;;;;;;;17.83;8.15;;;;;;;2.84;100.00;99130.25;5012435;28;20045;-71
2021/10/17 03:50:35;;;;;;;16.00;8.10;;;;;;;2.88;100.00;99135.28;5013044;28;20025;-70
2021/10/17 03:53:01;;;;;;;48.42;8.57;;;;;;;2.59;100.00;99101.47;5012163;28;20084;-71
2021/10/17 03:55:27;;;;;;;14.57;7.93;;;;;;;2.83;100.00;99141.94;5012723;28;20037;-72
2021/10/17 03:57:52;;;;;;;11.88;7.43;;;;;;;2.71;100.00;99108.34;5012527;28;20022;-71
2021/10/17 04:00:17;;;;;;;21.35;8.73;;;;;;;2.90;100.00;99142.16;5012866;28;20041;-71
2021/10/17 04:02:43;;;;;;;18.33;8.85;;;;;;;2.83;100.00;99117.03;5011837;28;20172;-71
2021/10/17 04:05:08;;;;;;;12.75;7.88;;;;;;;3.00;100.00;99142.13;5011758;28;20502;-71
2021/10/17 04:07:38;;;;;;;15.60;8.27;;;;;;;2.97;100.00;99126.41;5010848;28;20045;-72
2021/10/17 04:10:04;;;;;;;12.18;7.25;;;;;;;2.92;100.00;99117.97;5027871;28;20030;-71
2021/10/17 04:12:29;;;;;;;13.82;7.28;;;;;;;2.84;100.00;99116.03;5010913;28;20038;-72
2021/10/17 04:14:55;;;;;;;12.65;8.07;;;;;;;2.98;100.00;99112.88;5011568;28;20041;-71
2021/10/17 04:17:20;;;;;;;13.50;8.18;;;;;;;2.83;100.00;99093.81;5012600;28;20022;-71
2021/10/17 04:19:46;;;;;;;12.63;8.10;;;;;;;3.02;100.00;99122.28;5028060;28;20049;-71
2021/10/17 04:22:11;;;;;;;14.18;8.43;;;;;;;3.06;100.00;99115.66;5017017;28;20049;-71
2021/10/17 04:24:36;;;;;;;12.75;8.23;;;;;;;3.05;100.00;99097.94;5021679;28;20029;-71
2021/10/17 04:27:02;;;;;;;12.57;7.43;;;;;;;3.17;100.00;99141.38;5011146;28;20511;-71
2021/10/17 04:29:27;;;;;;;17.92;7.75;;;;;;;2.90;100.00;99099.41;5012526;28;20080;-73
2021/10/17 04:31:53;;;;;;;11.05;7.05;;;;;;;2.96;100.00;99106.84;5012186;28;20080;-72
2021/10/17 04:34:18;;;;;;;25.02;7.60;;;;;;;2.90;100.00;99106.59;5012163;28;20034;-71
2021/10/17 04:36:43;;;;;;;28.05;7.72;;;;;;;3.00;100.00;99121.59;5011946;28;20034;-73
2021/10/17 04:39:09;;;;;;;26.33;8.13;;;;;;;2.88;100.00;99113.91;5009065;28;20176;-73
2021/10/17 04:41:34;;;;;;;10.68;6.82;;;;;;;2.85;100.00;99104.34;5011582;28;20029;-73
2021/10/17 04:44:01;;;;;;;19.27;8.30;;;;;;;3.04;100.00;99117.66;5012168;28;20559;-73
2021/10/17 04:46:26;;;;;;;29.65;9.35;;;;;;;3.06;100.00;99122.84;4998308;28;20380;-72
2021/10/17 04:48:51;;;;;;;57.65;9.85;;;;;;;3.18;100.00;99140.38;5010625;28;20026;-73
2021/10/17 04:51:17;;;;;;;22.33;7.93;;;;;;;3.23;100.00;99137.25;5027140;28;20120;-73
2021/10/17 04:53:42;;;;;;;99.63;11.35;;;;;;;3.15;100.00;99118.44;5012849;28;20036;-71
2021/10/17 04:56:07;;;;;;;42.00;9.00;;;;;;;3.14;100.00;99122.09;5015745;28;20105;-71
2021/10/17 04:58:32;;;;;;;60.53;10.10;;;;;;;3.00;100.00;99112.75;5015388;28;20026;-71
2021/10/17 05:00:58;;;;;;;19.30;8.43;;;;;;;3.24;100.00;99131.75;5014040;28;20041;-72
2021/10/17 05:03:24;;;;;;;28.77;8.65;;;;;;;3.28;100.00;99127.78;5012350;28;20073;-72
2021/10/17 05:05:49;;;;;;;27.30;8.05;;;;;;;3.25;100.00;99137.97;5015140;28;20113;-72
2021/10/17 05:08:15;;;;;;;26.55;8.05;;;;;;;3.04;100.00;99098.94;5014749;28;20516;-74
2021/10/17 05:10:40;;;;;;;24.48;7.63;;;;;;;3.25;100.00;99125.44;5017332;28;20025;-72
2021/10/17 05:13:06;;;;;;;22.83;7.35;;;;;;;3.11;100.00;99112.53;5018121;28;20100;-72
2021/10/17 05:15:31;;;;;;;26.90;7.82;;;;;;;3.17;100.00;99117.31;5016211;28;20033;-72
2021/10/17 05:17:57;;;;;;;26.58;8.23;;;;;;;3.26;100.00;99135.13;5015663;28;20383;-73
2021/10/17 05:20:22;;;;;;;13.70;7.78;;;;;;;3.20;100.00;99135.72;5015080;28;20111;-72
2021/10/17 05:22:47;;;;;;;20.80;8.55;;;;;;;3.17;100.00;99119.13;5015370;28;20099;-72
2021/10/17 05:25:13;;;;;;;15.40;8.25;;;;;;;3.13;100.00;99107.06;5015665;28;20029;-73
2021/10/17 05:27:39;;;;;;;13.90;8.32;;;;;;;3.32;100.00;99132.84;5014546;28;20021;-73
2021/10/17 05:30:05;;;;;;;18.48;8.02;;;;;;;3.18;100.00;99116.31;5014256;28;20034;-72
2021/10/17 05:32:30;;;;;;;13.82;7.80;;;;;;;3.19;100.00;99119.81;5014691;28;20022;-75
2021/10/17 05:34:55;;;;;;;26.65;7.85;;;;;;;3.07;100.00;99105.81;5012173;28;20037;-73
2021/10/17 05:37:21;;;;;;;12.70;8.23;;;;;;;3.29;100.00;99142.84;5012382;28;20037;-73
2021/10/17 05:39:46;;;;;;;21.80;7.88;;;;;;;3.21;100.00;99123.19;5014434;28;20034;-75
2021/10/17 05:42:12;;;;;;;14.23;8.07;;;;;;;3.35;100.00;99119.16;5013416;28;20037;-75
2021/10/17 05:44:37;;;;;;;13.95;8.52;;;;;;;3.36;100.00;99124.38;5018875;28;20029;-72
2021/10/17 05:47:02;;;;;;;16.00;9.05;;;;;;;3.38;100.00;99125.09;5016064;28;20034;-73
2021/10/17 05:49:27;;;;;;;14.63;7.93;;;;;;;3.41;100.00;99118.59;5016821;28;20026;-74
2021/10/17 05:51:53;;;;;;;15.13;8.27;;;;;;;3.46;100.00;99121.66;5013745;28;20036;-74
2021/10/17 05:54:18;;;;;;;16.58;8.38;;;;;;;3.53;100.00;99125.41;5015452;28;20435;-71
2021/10/17 05:56:43;;;;;;;12.90;8.15;;;;;;;3.37;100.00;99111.84;5016825;28;20041;-72
2021/10/17 05:59:09;;;;;;;13.80;7.30;;;;;;;3.63;100.00;99141.41;5016171;28;20041;-72
2021/10/17 06:01:37;;;;;;;12.23;7.65;;;;;;;3.53;100.00;99127.22;5032480;28;20085;-73
2021/10/17 06:04:03;;;;;;;16.23;8.45;;;;;;;3.69;100.00;99154.16;5027918;28;20041;-70
2021/10/17 06:06:28;;;;;;;15.60;9.30;;;;;;;3.76;100.00;99157.91;5060180;22;20164;-75
2021/10/17 06:08:56;;;;;;;14.45;8.30;;;;;;;3.71;100.00;99147.66;5029028;28;20033;-73
2021/10/17 06:11:22;;;;;;;14.32;8.80;;;;;;;3.78;100.00;99152.44;5033852;28;20048;-73
2021/10/17 06:13:47;;;;;;;15.85;8.52;;;;;;;3.94;100.00;99174.00;5034214;28;20052;-72
2021/10/17 06:16:12;;;;;;;15.65;8.00;;;;;;;3.97;100.00;99167.50;5033966;28;20029;-73
2021/10/17 06:18:38;;;;;;;13.93;8.00;;;;;;;3.93;100.00;99169.66;5032907;28;20479;-74
2021/10/17 06:21:05;;;;;;;19.63;9.68;;;;;;;4.04;100.00;99179.28;5020417;28;20041;-73
2021/10/17 06:23:31;;;;;;;24.15;11.70;;;;;;;4.06;100.00;99177.28;5024451;28;20384;-75
2021/10/17 06:25:57;;;;;;;19.80;11.20;;;;;;;4.07;100.00;99185.19;5029767;28;20025;-73
2021/10/17 06:28:22;;;;;;;24.77;10.80;;;;;;;4.13;100.00;99184.56;5030069;28;20022;-72
2021/10/17 06:30:47;;;;;;;18.90;11.15;;;;;;;4.24;100.00;99193.34;5033348;28;20037;-73
2021/10/17 06:33:13;;;;;;;17.63;9.40;;;;;;;4.36;100.00;99178.75;5033830;28;20017;-74
2021/10/17 06:35:38;;;;;;;17.27;9.50;;;;;;;4.32;100.00;99178.22;5033570;28;20087;-72
2021/10/17 06:38:03;;;;;;;16.95;9.13;;;;;;;4.42;100.00;99191.50;5033713;28;20017;-73
2021/10/17 06:40:29;;;;;;;19.60;9.73;;;;;;;4.43;100.00;99197.72;5033626;28;20414;-72
2021/10/17 06:42:56;;;;;;;23.80;10.48;;;;;;;4.57;100.00;99199.84;5033377;28;20045;-72
2021/10/17 06:45:21;;;;;;;21.02;11.05;;;;;;;4.56;100.00;99201.69;5033551;28;20033;-72
2021/10/17 06:47:46;;;;;;;20.10;10.45;;;;;;;4.60;100.00;99200.38;5032450;28;20032;-72
2021/10/17 06:50:13;;;;;;;20.70;10.55;;;;;;;4.59;100.00;99200.53;5032293;28;20068;-73
2021/10/17 06:52:39;;;;;;;22.77;10.02;;;;;;;4.70;100.00;99191.41;5026015;28;20525;-72
2021/10/17 06:55:05;;;;;;;20.90;9.95;;;;;;;4.82;100.00;99201.72;5025197;28;20060;-72
2021/10/17 06:57:30;;;;;;;18.65;9.35;;;;;;;4.80;100.00;99184.13;5030786;28;20018;-72
2021/10/17 06:59:55;;;;;;;18.02;8.32;;;;;;;5.01;100.00;99191.78;5025442;28;20040;-72
2021/10/17 07:02:21;;;;;;;17.92;9.25;;;;;;;5.04;100.00;99199.50;5023993;28;20029;-75
2021/10/17 07:04:46;;;;;;;23.02;8.50;;;;;;;5.14;100.00;99204.78;5026368;28;20025;-75
2021/10/17 07:07:11;;;;;;;15.27;8.32;;;;;;;5.12;100.00;99199.56;5020992;28;20133;-73
2021/10/17 07:09:37;;;;;;;18.40;8.23;;;;;;;5.26;100.00;99206.16;5017544;28;20022;-73
2021/10/17 07:12:02;;;;;;;13.98;7.70;;;;;;;5.36;100.00;99211.44;5026018;28;20060;-73
2021/10/17 07:14:27;;;;;;;16.40;9.20;;;;;;;5.56;100.00;99212.03;5032575;28;20395;-69
2021/10/17 07:16:52;;;;;;;13.07;7.63;;;;;;;5.59;100.00;99203.66;5032693;28;20021;-74
2021/10/17 07:19:18;;;;;;;13.40;8.13;;;;;;;5.84;100.00;99226.03;5031497;28;20110;-75
2021/10/17 07:21:43;;;;;;;14.50;8.60;;;;;;;6.02;100.00;99217.91;5024367;28;20029;-73
2021/10/17 07:24:08;;;;;;;13.90;8.15;;;;;;;6.06;100.00;99187.03;5035169;28;20037;-75
2021/10/17 07:26:34;;;;;;;19.85;8.68;;;;;;;6.30;100.00;99221.16;5034296;28;20037;-75
2021/10/17 07:28:59;;;;;;;12.85;8.07;;;;;;;6.36;100.00;99226.69;5032462;28;20454;-74
2021/10/17 07:31:24;;;;;;;12.90;7.68;;;;;;;6.40;99.55;99223.72;5033353;28;20032;-74
2021/10/17 07:33:50;;;;;;;12.90;7.80;;;;;;;6.54;98.41;99220.34;5033194;28;20104;-72
2021/10/17 07:36:15;;;;;;;15.63;7.45;;;;;;;6.56;97.99;99212.97;5031832;28;20112;-73
2021/10/17 07:38:41;;;;;;;13.00;7.07;;;;;;;6.66;98.29;99208.25;5044493;28;20025;-72
2021/10/17 07:41:06;;;;;;;15.27;8.27;;;;;;;6.74;96.43;99212.81;5025668;28;20094;-71
2021/10/17 07:43:31;;;;;;;13.68;8.23;;;;;;;7.04;100.00;99211.25;5034089;28;20037;-72
2021/10/17 07:45:56;;;;;;;14.45;8.07;;;;;;;7.35;97.32;99219.41;5035922;28;20032;-72
2021/10/17 07:48:22;;;;;;;13.75;8.25;;;;;;;7.35;95.37;99213.19;5030335;28;20060;-73
2021/10/17 07:50:47;;;;;;;15.68;9.07;;;;;;;7.39;94.58;99219.94;5026721;28;20028;-73
2021/10/17 07:53:12;;;;;;;16.58;8.65;;;;;;;7.52;93.17;99219.34;5026971;28;20048;-75
2021/10/17 07:55:38;;;;;;;16.42;8.57;;;;;;;7.56;92.28;99231.47;5020369;28;20021;-74
2021/10/17 07:58:03;;;;;;;15.73;9.23;;;;;;;7.18;92.09;99223.19;5019485;28;20018;-73
2021/10/17 08:00:30;;;;;;;22.95;9.00;;;;;;;7.05;93.15;99221.00;5013357;28;20506;-71
2021/10/17 08:02:56;;;;;;;24.60;10.88;;;;;;;7.13;93.87;99231.75;5021662;28;20168;-77
2021/10/17 08:05:22;;;;;;;32.92;10.73;;;;;;;7.21;93.45;99233.59;5020744;28;20113;-75
2021/10/17 08:07:49;;;;;;;19.50;9.63;;;;;;;7.45;92.79;99221.91;5026547;28;20022;-70
2021/10/17 08:10:14;;;;;;;17.55;9.98;;;;;;;7.41;93.22;99234.03;5030043;28;20360;-70
2021/10/17 08:12:40;;;;;;;20.23;10.63;;;;;;;7.64;93.90;99226.06;5011674;28;20060;-69
2021/10/17 08:15:07;;;;;;;21.45;10.13;;;;;;;7.57;93.11;99222.38;5030041;28;20064;-70
2021/10/17 08:17:33;;;;;;;32.33;11.57;;;;;;;7.56;95.00;99229.63;5032256;28;20021;-70
2021/10/17 08:19:58;;;;;;;39.67;10.85;;;;;;;7.69;92.81;99235.28;5031971;28;20021;-71
2021/10/17 08:22:23;;;;;;;27.73;11.55;;;;;;;7.47;94.32;99223.44;5031930;28;20036;-70
2021/10/17 08:24:50;;;;;;;19.10;10.88;;;;;;;7.64;93.58;99221.50;5031911;28;20030;-70
2021/10/17 08:27:15;;;;;;;23.75;11.98;;;;;;;7.79;93.66;99245.03;5031363;28;20029;-69
2021/10/17 08:29:41;;;;;;;21.58;11.90;;;;;;;7.81;93.52;99246.53;5030116;28;20040;-70
2021/10/17 08:32:06;;;;;;;26.35;11.77;;;;;;;7.52;94.49;99224.75;5015401;28;20033;-70
2021/10/17 08:34:32;;;;;;;18.45;11.02;;;;;;;7.67;95.05;99229.22;5033490;28;20033;-70
2021/10/17 08:36:57;;;;;;;18.23;11.38;;;;;;;7.96;95.73;99254.69;5032825;28;20021;-70
2021/10/17 08:39:23;;;;;;;18.42;11.10;;;;;;;7.95;94.91;99242.25;5032967;28;20370;-71
2021/10/17 08:41:48;;;;;;;22.17;11.35;;;;;;;7.97;94.12;99248.31;5034277;28;20479;-70
2021/10/17 08:44:15;;;;;;;24.50;12.18;;;;;;;8.10;93.80;99251.28;5034184;28;20613;-70
2021/10/17 08:46:42;;;;;;;19.80;12.05;;;;;;;8.16;93.47;99247.03;5033592;28;20048;-69
2021/10/17 08:49:09;;;;;;;25.35;12.13;;;;;;;8.18;91.65;99241.47;5033136;28;20037;-70
2021/10/17 08:51:34;;;;;;;26.55;11.63;;;;;;;8.25;91.82;99243.28;5033902;28;20036;-70
2021/10/17 08:53:59;;;;;;;25.30;11.63;;;;;;;8.23;91.61;99244.50;5033635;28;20021;-70
2021/10/17 08:56:25;;;;;;;21.50;11.75;;;;;;;8.39;92.45;99255.19;5032451;28;20033;-70
2021/10/17 08:58:50;;;;;;;21.75;11.50;;;;;;;8.70;90.90;99251.63;5030308;28;20064;-70
2021/10/17 09:01:17;;;;;;;22.45;11.00;;;;;;;8.57;89.77;99249.53;5033780;28;20025;-70
2021/10/17 09:03:51;;;;;;;18.98;11.15;;;;;;;8.47;90.91;99244.34;5033802;28;20053;-70
2021/10/17 09:06:19;;;;;;;19.45;11.95;;;;;;;8.71;89.93;99247.88;5033393;28;20030;-70
2021/10/17 09:08:45;;;;;;;19.20;11.02;;;;;;;8.62;90.03;99239.03;5032462;28;20487;-70
2021/10/17 09:11:11;;;;;;;21.80;11.93;;;;;;;8.66;90.29;99229.53;5033132;28;20032;-69
2021/10/17 09:14:06;;;;;;;18.48;12.18;;;;;;;8.74;89.72;99234.88;5033550;28;20036;-70
2021/10/17 09:16:36;;;;;;;20.95;12.00;;;;;;;9.04;86.49;99237.66;5032125;28;20049;-70
2021/10/17 09:19:11;;;;;;;18.38;10.93;;;;;;;9.08;86.63;99238.97;5033617;28;20032;-70
2021/10/17 09:21:37;;;;;;;19.65;12.00;;;;;;;8.95;88.24;99236.88;5033045;28;20031;-71
2021/10/17 09:24:03;;;;;;;24.70;12.32;;;;;;;8.90;89.56;99223.09;5033135;28;20033;-70
2021/10/17 09:26:28;;;;;;;23.95;13.57;;;;;;;9.16;87.25;99233.47;5033754;28;20033;-70
2021/10/17 09:28:54;;;;;;;19.30;12.20;;;;;;;8.98;86.98;99231.13;5033460;28;20108;-70
2021/10/17 09:31:21;;;;;;;21.65;12.80;;;;;;;8.77;89.19;99248.00;5033086;28;20032;-71
2021/10/17 09:33:49;;;;;;;20.13;12.68;;;;;;;9.05;87.39;99243.91;5033479;28;20041;-71
2021/10/17 09:36:25;;;;;;;21.63;12.93;;;;;;;8.96;87.28;99243.13;5037895;28;20030;-70
2021/10/17 09:39:00;;;;;;;21.52;12.90;;;;;;;9.20;86.29;99244.78;5041214;28;20018;-70
2021/10/17 09:41:34;;;;;;;21.35;12.65;;;;;;;8.91;86.95;99232.88;5047790;28;20025;-70
2021/10/17 09:44:01;;;;;;;23.35;13.30;;;;;;;8.76;87.04;99234.69;5050752;28;20026;-70
2021/10/17 09:46:27;;;;;;;23.10;12.95;;;;;;;8.32;89.89;99216.44;5051735;28;20032;-70
2021/10/17 09:48:53;;;;;;;23.50;13.07;;;;;;;8.27;92.14;99235.00;5049483;28;20041;-70
2021/10/17 09:51:23;;;;;;;23.27;13.70;;;;;;;8.23;91.64;99209.44;5049115;28;20030;-70
2021/10/17 09:53:49;;;;;;;23.80;13.32;;;;;;;8.62;90.05;99221.97;5046792;28;20116;-70
2021/10/17 09:56:38;;;;;;;24.10;12.98;;;;;;;8.76;88.61;99230.13;5034473;28;20032;-70
2021/10/17 09:59:10;;;;;;;24.52;14.23;;;;;;;9.04;87.39;99210.69;5033663;28;20025;-70
2021/10/17 10:01:37;;;;;;;25.50;13.85;;;;;;;9.29;87.32;99207.72;5033854;28;20044;-69
2021/10/17 10:04:05;;;;;;;22.98;14.40;;;;;;;9.55;85.44;99220.78;5030389;28;20036;-70
2021/10/17 10:06:32;;;;;;;22.83;13.85;;;;;;;9.75;83.82;99215.66;5033548;28;20491;-70
2021/10/17 10:09:04;;;;;;;23.60;14.05;;;;;;;9.52;84.15;99210.34;5031834;28;20025;-70
2021/10/17 10:11:32;;;;;;;24.35;14.32;;;;;;;9.48;83.28;99219.84;5032007;28;20509;-70
2021/10/17 10:14:00;;;;;;;26.63;14.30;;;;;;;9.65;83.56;99202.41;5032981;28;20030;-71
2021/10/17 10:16:27;;;;;;;25.48;14.80;;;;;;;9.64;83.20;99217.78;5032990;28;20085;-69
2021/10/17 10:18:58;;;;;;;25.10;14.82;;;;;;;9.85;83.10;99226.97;5032387;28;20483;-69
2021/10/17 10:21:24;;;;;;;26.05;14.63;;;;;;;9.65;82.82;99227.56;5033954;28;20036;-69
2021/10/17 10:23:53;;;;;;;30.73;15.93;;;;;;;9.75;82.20;99230.00;5032570;28;20108;-69
2021/10/17 10:26:23;;;;;;;30.08;14.88;;;;;;;9.98;82.37;99223.59;5032702;28;20025;-69
2021/10/17 10:28:50;;;;;;;24.88;15.00;;;;;;;10.05;81.34;99225.38;5032042;28;20622;-70
2021/10/17 10:31:50;;;;;;;28.75;16.15;;;;;;;9.92;82.17;99230.59;5030500;28;20037;-71
2021/10/17 10:34:21;;;;;;;24.27;14.93;;;;;;;9.97;81.69;99230.88;5029106;28;20034;-69
2021/10/17 10:36:49;;;;;;;28.05;15.05;;;;;;;10.01;83.20;99229.50;5031941;28;20025;-70
2021/10/17 10:39:16;;;;;;;25.25;13.95;;;;;;;10.37;82.96;99228.66;5032121;28;20048;-70
2021/10/17 10:42:02;;;;;;;25.77;15.00;;;;;;;10.29;83.54;99226.91;5030683;28;20037;-70
2021/10/17 10:44:27;;;;;;;23.13;14.55;;;;;;;10.41;83.36;99229.13;5022048;28;20033;-69
2021/10/17 10:46:56;;;;;;;22.00;13.68;;;;;;;10.71;81.85;99229.84;5012328;28;20025;-70
2021/10/17 10:49:49;;;;;;;24.88;15.73;;;;;;;10.51;80.71;99225.09;5023103;28;20032;-70
2021/10/17 10:52:23;;;;;;;25.83;15.40;;;;;;;10.61;81.21;99224.78;5023655;28;20057;-70
2021/10/17 10:54:48;;;;;;;26.88;16.27;;;;;;;10.73;80.07;99227.78;5022928;28;20052;-71
2021/10/17 10:57:37;;;;;;;27.13;15.52;;;;;;;10.82;79.73;99226.63;5022600;28;20515;-76
2021/10/17 11:00:09;;;;;;;27.13;14.85;;;;;;;10.96;79.86;99219.47;5025301;28;20479;-76
2021/10/17 11:02:35;;;;;;;28.15;15.15;;;;;;;10.92;79.95;99219.00;5023956;28;20061;-72
2021/10/17 11:05:04;;;;;;;24.48;15.68;;;;;;;11.20;78.05;99218.19;5032180;28;20085;-67
2021/10/17 11:07:43;;;;;;;26.05;15.48;;;;;;;11.10;79.02;99221.22;5031852;28;20047;-67
2021/10/17 11:10:25;;;;;;;25.20;15.90;;;;;;;11.10;79.00;99218.50;5032099;28;20030;-73
2021/10/17 11:12:56;;;;;;;26.27;14.38;;;;;;;11.24;78.48;99216.75;5013395;28;20041;-76
2021/10/17 11:15:27;;;;;;;25.25;15.52;;;;;;;11.25;78.85;99210.31;5026789;28;20348;-74
2021/10/17 11:17:58;;;;;;;26.58;15.43;;;;;;;11.52;78.59;99213.19;5018712;28;20030;-73
2021/10/17 11:20:33;;;;;;;25.73;15.13;;;;;;;11.38;78.55;99202.25;5031154;28;20032;-73
2021/10/17 11:23:00;;;;;;;28.95;15.80;;;;;;;11.22;78.47;99205.28;5033139;28;20036;-75